Time;durP1;ratioP1;P1;durP2;ratioP2;P2;SDS_P1;SDS_P2;PMS_P1;PMS_P2;Temp;Humidity;BMP_temperature;BMP_pressure;BME280_temperature;BME280_humidity;BME280_pressure;Samples;Min_cycle;Max_cycle;Signal;HPM_P1;HPM_P2
2023/12/22 00:06:25;;;;;;;;;;;6.00;99.90;;;;;;6709720;88;20071;-81
2023/12/22 00:16:25;;;;;;;;;;;5.80;99.90;;;;;;6710661;88;20216;-80
2023/12/22 00:26:26;;;;;;;;;;;6.10;99.90;;;;;;6707928;88;20110;-80
2023/12/22 00:36:26;;;;;;;;;;;4.70;99.90;;;;;;6710040;88;20494;-80
2023/12/22 00:46:27;;;;;;;;;;;4.40;99.90;;;;;;6711465;88;20050;-80
2023/12/22 00:56:27;;;;;;;;;;;4.40;99.90;;;;;;6710491;88;20089;-80
2023/12/22 01:06:28;;;;;;;;;;;4.60;99.90;;;;;;6708313;88;20517;-80
2023/12/22 01:16:28;;;;;;;;;;;4.60;99.90;;;;;;6708588;88;20834;-81
2023/12/22 01:26:29;;;;;;;;;;;4.80;99.90;;;;;;6712086;88;20166;-81
2023/12/22 01:36:29;;;;;;;;;;;4.80;99.90;;;;;;6708622;88;20069;-81
2023/12/22 01:46:30;;;;;;;;;;;5.00;99.90;;;;;;6711785;88;20266;-81
2023/12/22 01:56:31;;;;;;;;;;;5.00;99.90;;;;;;6712557;88;20074;-82
2023/12/22 02:06:32;;;;;;;;;;;5.10;99.90;;;;;;6712566;88;20092;-80
2023/12/22 02:16:39;;;;;;;;;;;5.10;99.90;;;;;;6711708;88;20068;-80
2023/12/22 02:26:43;;;;;;;;;;;5.20;99.90;;;;;;6712174;88;20537;-81
2023/12/22 02:36:44;;;;;;;;;;;5.20;99.90;;;;;;6708841;88;20088;-80
2023/12/22 02:46:45;;;;;;;;;;;5.30;99.90;;;;;;6713317;88;20097;-80
2023/12/22 02:56:46;;;;;;;;;;;5.30;99.90;;;;;;6713282;88;20062;-80
2023/12/22 03:06:46;;;;;;;;;;;5.30;99.90;;;;;;6712543;88;20082;-80
2023/12/22 03:16:47;;;;;;;;;;;5.50;99.90;;;;;;6711629;88;20074;-80
2023/12/22 03:26:47;;;;;;;;;;;6.00;99.90;;;;;;6711316;88;20120;-79
2023/12/22 03:36:48;;;;;;;;;;;6.20;99.90;;;;;;6708999;88;20050;-79
2023/12/22 03:46:51;;;;;;;;;;;6.50;99.90;;;;;;6708401;88;20061;-79
2023/12/22 03:56:51;;;;;;;;;;;6.50;99.90;;;;;;6708325;88;20050;-80
2023/12/22 04:06:52;;;;;;;;;;;6.50;99.90;;;;;;6694282;88;20600;-79
2023/12/22 04:16:52;;;;;;;;;;;6.60;99.90;;;;;;6705918;88;20067;-78
2023/12/22 04:26:53;;;;;;;;;;;6.30;99.90;;;;;;6708994;88;20564;-79
2023/12/22 04:36:53;;;;;;;;;;;6.10;99.90;;;;;;6707784;88;20051;-78
2023/12/22 04:46:54;;;;;;;;;;;6.00;99.90;;;;;;6704297;88;20067;-79
2023/12/22 04:56:54;;;;;;;;;;;5.80;99.90;;;;;;6708027;88;20078;-78
2023/12/22 05:06:55;;;;;;;;;;;6.00;99.90;;;;;;6709001;88;20055;-78
2023/12/22 05:16:56;;;;;;;;;;;6.10;99.90;;;;;;6707504;88;20094;-78
2023/12/22 05:26:57;;;;;;;;;;;6.70;99.90;;;;;;6708000;88;20060;-78
2023/12/22 05:36:57;;;;;;;;;;;6.80;99.90;;;;;;6708508;88;20055;-78
2023/12/22 05:46:58;;;;;;;;;;;7.10;99.90;;;;;;6710396;88;20092;-79
2023/12/22 05:56:58;;;;;;;;;;;7.30;99.90;;;;;;6708886;88;20574;-78
2023/12/22 06:06:59;;;;;;;;;;;7.50;99.90;;;;;;6707242;88;20194;-79
2023/12/22 06:16:59;;;;;;;;;;;7.70;99.90;;;;;;6707006;88;20566;-78
2023/12/22 06:27:00;;;;;;;;;;;7.60;99.90;;;;;;6706419;88;20059;-79
2023/12/22 06:37:00;;;;;;;;;;;7.80;99.90;;;;;;6703132;88;20502;-78
2023/12/22 06:47:00;;;;;;;;;;;7.60;99.90;;;;;;6710695;88;20056;-79
2023/12/22 06:57:01;;;;;;;;;;;7.50;99.90;;;;;;6710279;88;20196;-79
2023/12/22 07:07:01;;;;;;;;;;;7.60;99.90;;;;;;6708210;88;20159;-79
2023/12/22 07:17:02;;;;;;;;;;;7.50;99.90;;;;;;6705738;88;20112;-79
2023/12/22 07:27:03;;;;;;;;;;;7.00;99.90;;;;;;6707387;88;20089;-79
2023/12/22 07:37:04;;;;;;;;;;;6.80;99.90;;;;;;6708406;88;20087;-79
2023/12/22 07:47:07;;;;;;;;;;;6.70;99.90;;;;;;6707326;88;20055;-79
2023/12/22 07:57:07;;;;;;;;;;;6.70;99.90;;;;;;6708235;88;20137;-80
2023/12/22 08:07:08;;;;;;;;;;;6.60;99.90;;;;;;6709351;88;20058;-79
2023/12/22 08:17:08;;;;;;;;;;;6.70;99.90;;;;;;6708747;88;20087;-79
2023/12/22 08:27:08;;;;;;;;;;;7.00;99.90;;;;;;6709368;88;20160;-79
2023/12/22 08:37:09;;;;;;;;;;;7.30;99.90;;;;;;6700175;88;20150;-79
2023/12/22 08:47:09;;;;;;;;;;;7.50;99.90;;;;;;6690784;88;20534;-79
2023/12/22 08:57:10;;;;;;;;;;;7.50;99.90;;;;;;6690917;88;20052;-79
2023/12/22 09:07:11;;;;;;;;;;;7.70;99.90;;;;;;6703234;88;20054;-80
2023/12/22 09:17:11;;;;;;;;;;;7.80;99.90;;;;;;6704400;88;20065;-80
2023/12/22 09:27:12;;;;;;;;;;;8.00;99.90;;;;;;6704395;88;20055;-80
2023/12/22 09:37:13;;;;;;;;;;;8.10;99.90;;;;;;6706164;88;20523;-80
2023/12/22 09:47:14;;;;;;;;;;;8.20;99.90;;;;;;6702229;88;20080;-79
2023/12/22 09:57:15;;;;;;;;;;;8.30;99.90;;;;;;6703830;88;20178;-79
2023/12/22 10:07:16;;;;;;;;;;;8.50;99.90;;;;;;6697640;88;20182;-80
2023/12/22 10:17:17;;;;;;;;;;;8.60;99.90;;;;;;6688243;88;20066;-80
2023/12/22 10:27:23;;;;;;;;;;;8.70;99.90;;;;;;6706463;88;20059;-79
2023/12/22 10:37:24;;;;;;;;;;;8.60;99.90;;;;;;6698205;88;20113;-78
2023/12/22 10:47:24;;;;;;;;;;;8.70;99.90;;;;;;6703095;88;20426;-78
2023/12/22 10:57:26;;;;;;;;;;;8.60;99.90;;;;;;6699251;88;20062;-79
2023/12/22 11:07:28;;;;;;;;;;;8.50;99.90;;;;;;6702156;88;20470;-78
2023/12/22 11:17:29;;;;;;;;;;;8.30;99.90;;;;;;6704253;88;20509;-79
2023/12/22 11:27:32;;;;;;;;;;;8.30;99.90;;;;;;6707497;88;20155;-79
2023/12/22 11:37:35;;;;;;;;;;;8.40;99.90;;;;;;6704523;88;20073;-78
2023/12/22 11:47:36;;;;;;;;;;;8.60;99.90;;;;;;6702661;88;20198;-79
2023/12/22 11:57:37;;;;;;;;;;;8.90;99.90;;;;;;6703336;88;20503;-79
2023/12/22 12:07:45;;;;;;;;;;;9.10;99.90;;;;;;6699327;88;20107;-79
2023/12/22 12:17:47;;;;;;;;;;;9.30;99.90;;;;;;6702847;88;20683;-78
2023/12/22 12:27:48;;;;;;;;;;;9.60;99.90;;;;;;6707838;88;20220;-78
2023/12/22 12:37:48;;;;;;;;;;;9.70;99.90;;;;;;6709705;88;20124;-79
2023/12/22 12:47:58;;;;;;;;;;;9.80;99.90;;;;;;6709654;88;20079;-80
2023/12/22 12:57:58;;;;;;;;;;;9.90;99.90;;;;;;6709825;88;20137;-80
2023/12/22 13:08:06;;;;;;;;;;;9.90;99.90;;;;;;6710263;88;20709;-79
2023/12/22 13:18:06;;;;;;;;;;;9.90;99.90;;;;;;6709278;88;20654;-82
2023/12/22 13:28:07;;;;;;;;;;;9.60;99.90;;;;;;6706822;88;20071;-80
2023/12/22 13:38:08;;;;;;;;;;;9.20;99.90;;;;;;6705456;88;20064;-79
2023/12/22 13:48:09;;;;;;;;;;;9.30;99.90;;;;;;6705930;88;20156;-79
2023/12/22 13:58:11;;;;;;;;;;;9.60;99.90;;;;;;6708589;88;20099;-79
2023/12/22 14:08:12;;;;;;;;;;;9.70;99.90;;;;;;6690884;88;20117;-81
2023/12/22 14:18:14;;;;;;;;;;;9.80;99.90;;;;;;6707572;88;20059;-80
2023/12/22 14:28:14;;;;;;;;;;;9.90;99.90;;;;;;6695507;88;20182;-79
2023/12/22 14:38:15;;;;;;;;;;;9.80;99.90;;;;;;6694417;88;20143;-81
2023/12/22 14:48:15;;;;;;;;;;;9.90;99.90;;;;;;6695516;88;20072;-79
2023/12/22 14:58:16;;;;;;;;;;;9.80;99.90;;;;;;6689699;89;20089;-77
2023/12/22 15:08:16;;;;;;;;;;;9.80;99.90;;;;;;6694327;88;20056;-81
2023/12/22 15:18:17;;;;;;;;;;;9.80;99.90;;;;;;6694224;88;20143;-80
2023/12/22 15:38:21;;;;;;;;;;;9.40;99.90;;;;;;6730639;88;20103;-79
2023/12/22 15:48:21;;;;;;;;;;;9.30;99.90;;;;;;6728190;88;20673;-78
2023/12/22 15:58:21;;;;;;;;;;;9.20;99.90;;;;;;6728424;88;20099;-77
2023/12/22 16:08:22;;;;;;;;;;;9.20;99.90;;;;;;6724460;88;20077;-80
2023/12/22 16:18:23;;;;;;;;;;;9.30;99.90;;;;;;6716193;88;20103;-81
2023/12/22 16:28:23;;;;;;;;;;;9.30;99.90;;;;;;6717765;88;20746;-79
2023/12/22 16:38:24;;;;;;;;;;;9.20;99.90;;;;;;6715225;88;20076;-78
2023/12/22 16:48:25;;;;;;;;;;;9.30;99.90;;;;;;6708015;88;20585;-77
2023/12/22 16:58:25;;;;;;;;;;;9.30;99.90;;;;;;6711684;88;20239;-77
2023/12/22 17:08:25;;;;;;;;;;;9.30;99.90;;;;;;6724248;88;20046;-77
2023/12/22 17:18:26;;;;;;;;;;;9.40;99.90;;;;;;6703002;88;20081;-77
2023/12/22 17:28:26;;;;;;;;;;;9.40;99.90;;;;;;6704621;88;20059;-76
2023/12/22 17:38:27;;;;;;;;;;;9.30;99.90;;;;;;6706577;88;20068;-76
2023/12/22 17:48:27;;;;;;;;;;;9.40;99.90;;;;;;6711394;88;20051;-77
2023/12/22 17:58:28;;;;;;;;;;;9.50;99.90;;;;;;6709138;88;20059;-78
2023/12/22 18:08:28;;;;;;;;;;;9.60;99.90;;;;;;6709233;88;20195;-79
2023/12/22 18:18:29;;;;;;;;;;;9.60;99.90;;;;;;6731794;88;20056;-79
2023/12/22 18:28:30;;;;;;;;;;;9.70;99.90;;;;;;6729593;88;20121;-79
2023/12/22 18:38:30;;;;;;;;;;;9.80;99.90;;;;;;6711970;88;20068;-78
2023/12/22 18:48:30;;;;;;;;;;;9.80;99.90;;;;;;6717664;88;20203;-79
2023/12/22 18:58:31;;;;;;;;;;;9.90;99.90;;;;;;6718897;88;20158;-78
2023/12/22 19:08:31;;;;;;;;;;;9.80;99.90;;;;;;6716737;88;20590;-79
2023/12/22 19:18:32;;;;;;;;;;;9.50;99.90;;;;;;6713005;88;20530;-78
2023/12/22 19:28:32;;;;;;;;;;;9.50;99.90;;;;;;6709771;88;20078;-79
2023/12/22 19:38:33;;;;;;;;;;;9.60;99.90;;;;;;6708929;88;20270;-79
2023/12/22 19:48:34;;;;;;;;;;;9.60;99.90;;;;;;6711467;88;20058;-82
2023/12/22 19:58:34;;;;;;;;;;;9.70;99.90;;;;;;6711567;88;20084;-79
2023/12/22 20:08:34;;;;;;;;;;;9.80;99.90;;;;;;6718714;88;20066;-79
2023/12/22 20:18:35;;;;;;;;;;;9.70;99.90;;;;;;6710703;88;20218;-78
2023/12/22 20:28:36;;;;;;;;;;;9.70;99.90;;;;;;6710846;88;20086;-78
2023/12/22 20:38:36;;;;;;;;;;;9.60;99.90;;;;;;6707602;88;20156;-78
2023/12/22 20:48:37;;;;;;;;;;;9.70;99.90;;;;;;6716514;88;20070;-79
2023/12/22 20:58:37;;;;;;;;;;;9.60;99.90;;;;;;6718609;88;20059;-78
2023/12/22 21:08:38;;;;;;;;;;;9.70;99.90;;;;;;6719456;88;20076;-78
2023/12/22 21:18:38;;;;;;;;;;;9.70;99.90;;;;;;6726478;88;20044;-79
2023/12/22 21:28:40;;;;;;;;;;;9.70;99.90;;;;;;6723685;88;20185;-79
2023/12/22 21:49:43;;;;;;;;;;;9.50;99.90;;;;;;6753636;88;20045;-80
2023/12/22 21:59:43;;;;;;;;;;;9.10;99.90;;;;;;6744701;88;20558;-81
2023/12/22 22:09:44;;;;;;;;;;;9.40;99.90;;;;;;6757080;88;20087;-80
2023/12/22 22:19:44;;;;;;;;;;;9.50;99.90;;;;;;6754815;88;20069;-80
2023/12/22 22:29:45;;;;;;;;;;;9.50;99.90;;;;;;6721279;88;20036;-81
2023/12/22 22:39:45;;;;;;;;;;;9.50;99.90;;;;;;6719347;88;20088;-80
2023/12/22 22:49:46;;;;;;;;;;;8.90;99.90;;;;;;6734450;87;20093;-79
2023/12/22 22:59:46;;;;;;;;;;;7.30;99.90;;;;;;6761244;88;20054;-78
2023/12/22 23:09:47;;;;;;;;;;;7.10;99.90;;;;;;6758294;87;20097;-80
2023/12/22 23:19:47;;;;;;;;;;;7.10;99.90;;;;;;6758633;88;20127;-82
2023/12/22 23:29:48;;;;;;;;;;;7.00;99.90;;;;;;6770028;88;20045;-81
2023/12/22 23:39:49;;;;;;;;;;;6.90;99.90;;;;;;6754929;88;20067;-81
2023/12/22 23:49:49;;;;;;;;;;;6.90;99.90;;;;;;6763372;88;20109;-80
2023/12/22 23:59:50;;;;;;;;;;;7.00;99.90;;;;;;6778531;87;20132;-80
